Time;durP1;ratioP1;P1;durP2;ratioP2;P2;SDS_P1;SDS_P2;PMS_P1;PMS_P2;Temp;Humidity;BMP_temperature;BMP_pressure;BME280_temperature;BME280_humidity;BME280_pressure;Samples;Min_cycle;Max_cycle;Signal;HPM_P1;HPM_P2
2021/01/05 00:00:22;;;;;;;36.00;19.55;;;-1.00;99.90;;;;;;5046821;28;20693;-75
2021/01/05 00:02:50;;;;;;;41.92;20.25;;;-0.90;99.90;;;;;;5028683;28;20080;-73
2021/01/05 00:05:16;;;;;;;35.72;20.33;;;-0.90;99.90;;;;;;5047348;28;20061;-75
2021/01/05 00:07:43;;;;;;;33.40;17.90;;;-0.90;99.90;;;;;;5029393;28;20092;-74
2021/01/05 00:10:10;;;;;;;30.35;17.73;;;-0.90;99.90;;;;;;5028213;28;20045;-74
2021/01/05 00:12:37;;;;;;;36.10;19.38;;;-0.90;99.90;;;;;;5038121;28;20143;-75
2021/01/05 00:15:06;;;;;;;32.60;18.30;;;-0.90;99.90;;;;;;5040726;28;20488;-74
2021/01/05 00:17:32;;;;;;;33.35;18.15;;;-0.90;99.90;;;;;;5045907;28;20130;-73
2021/01/05 00:19:58;;;;;;;29.67;16.77;;;-0.90;99.90;;;;;;5046927;28;20049;-74
2021/01/05 00:22:25;;;;;;;30.80;17.02;;;-0.90;99.90;;;;;;5046402;28;20049;-75
2021/01/05 00:24:52;;;;;;;29.88;16.67;;;-0.90;99.90;;;;;;5046158;28;20591;-74
2021/01/05 00:27:19;;;;;;;28.27;16.23;;;-0.80;99.90;;;;;;5046231;28;20105;-75
2021/01/05 00:29:45;;;;;;;27.52;16.33;;;-0.80;99.90;;;;;;5046735;28;20052;-74
2021/01/05 00:32:17;;;;;;;24.38;15.13;;;-0.80;99.90;;;;;;5046193;28;20046;-75
2021/01/05 00:34:45;;;;;;;24.35;15.13;;;-0.80;99.90;;;;;;5046146;28;20040;-73
2021/01/05 00:37:14;;;;;;;22.50;12.88;;;-0.80;99.90;;;;;;5046421;28;20464;-74
2021/01/05 00:39:41;;;;;;;22.27;14.02;;;-0.70;99.90;;;;;;5027514;28;20060;-74
2021/01/05 00:42:08;;;;;;;21.83;14.02;;;-0.70;99.90;;;;;;5046672;28;20110;-74
2021/01/05 00:44:35;;;;;;;24.42;13.55;;;-0.70;99.90;;;;;;5045482;28;20052;-74
2021/01/05 00:47:02;;;;;;;22.10;12.25;;;-0.70;99.90;;;;;;5028706;28;20053;-74
2021/01/05 00:49:29;;;;;;;21.27;12.95;;;-0.70;99.90;;;;;;5045251;28;20045;-74
2021/01/05 00:51:55;;;;;;;20.35;12.00;;;-0.70;99.90;;;;;;5046145;28;20053;-74
2021/01/05 00:54:22;;;;;;;19.33;11.85;;;-0.60;99.90;;;;;;5044930;28;20072;-74
2021/01/05 00:57:02;;;;;;;20.92;12.55;;;-0.60;99.90;;;;;;5046357;28;20056;-74
2021/01/05 00:59:29;;;;;;;18.17;11.65;;;-0.60;99.90;;;;;;5045579;28;20079;-74
2021/01/05 01:01:59;;;;;;;19.67;12.38;;;-0.60;99.90;;;;;;5042082;28;20064;-73
2021/01/05 01:04:26;;;;;;;20.00;11.57;;;-0.70;99.90;;;;;;5044328;28;20743;-74
2021/01/05 01:06:54;;;;;;;19.02;12.30;;;-0.60;99.90;;;;;;5027906;28;20143;-74
2021/01/05 01:09:21;;;;;;;19.77;12.43;;;-0.60;99.90;;;;;;5045014;28;20152;-75
2021/01/05 01:12:02;;;;;;;21.48;11.85;;;-0.60;99.90;;;;;;5046278;28;20079;-75
2021/01/05 01:14:30;;;;;;;23.40;12.80;;;-0.60;99.90;;;;;;5045010;28;20103;-75
2021/01/05 01:16:56;;;;;;;18.88;11.73;;;-0.60;99.90;;;;;;5027403;28;20069;-73
2021/01/05 01:19:24;;;;;;;20.88;12.18;;;-0.50;99.90;;;;;;5044622;28;20037;-75
2021/01/05 01:21:52;;;;;;;19.63;12.15;;;-0.50;99.90;;;;;;5045502;28;20076;-75
2021/01/05 01:24:21;;;;;;;21.33;12.02;;;-0.50;99.90;;;;;;5031161;28;20110;-74
2021/01/05 01:26:47;;;;;;;24.52;12.70;;;-0.50;99.90;;;;;;5045839;28;20128;-74
2021/01/05 01:29:16;;;;;;;22.17;13.55;;;-0.50;99.90;;;;;;5036138;28;20518;-74
2021/01/05 01:31:42;;;;;;;24.02;14.27;;;-0.50;99.90;;;;;;5045565;28;20076;-74
2021/01/05 01:34:09;;;;;;;24.00;13.60;;;-0.50;99.90;;;;;;5025884;28;20128;-75
2021/01/05 01:36:36;;;;;;;22.25;13.50;;;-0.50;99.90;;;;;;5044988;28;20141;-74
2021/01/05 01:39:05;;;;;;;25.60;15.30;;;-0.50;99.90;;;;;;5044628;28;20123;-74
2021/01/05 01:41:32;;;;;;;26.17;14.88;;;-0.60;99.90;;;;;;5039797;28;20138;-74
2021/01/05 01:44:00;;;;;;;26.92;15.60;;;-0.60;99.90;;;;;;5044462;28;20083;-74
2021/01/05 01:46:34;;;;;;;25.48;15.27;;;-0.50;99.90;;;;;;5044733;28;20703;-75
2021/01/05 01:49:01;;;;;;;28.83;16.80;;;-0.60;99.90;;;;;;5044237;28;20095;-73
2021/01/05 01:51:31;;;;;;;26.67;15.88;;;-0.60;99.90;;;;;;5045039;28;20048;-75
2021/01/05 01:54:28;;;;;;;27.98;15.55;;;-0.60;99.90;;;;;;5044453;28;20154;-75
2021/01/05 01:57:00;;;;;;;25.55;14.15;;;-0.60;99.90;;;;;;5044901;28;20427;-73
2021/01/05 01:59:55;;;;;;;24.33;13.98;;;-0.60;99.90;;;;;;5044358;28;20543;-75
2021/01/05 02:02:59;;;;;;;23.88;14.23;;;-0.50;99.90;;;;;;5026237;28;20532;-75
2021/01/05 02:05:51;;;;;;;26.85;14.35;;;-0.50;99.90;;;;;;5022051;28;20487;-75
2021/01/05 02:08:45;;;;;;;29.42;15.35;;;-0.50;99.90;;;;;;5007324;28;20049;-76
2021/01/05 02:11:34;;;;;;;27.95;15.43;;;-0.50;99.90;;;;;;4983515;28;20111;-74
2021/01/05 02:14:33;;;;;;;26.38;15.15;;;-0.50;99.90;;;;;;4986675;28;20053;-74
2021/01/05 02:17:23;;;;;;;30.02;16.02;;;-0.50;99.90;;;;;;5041268;28;20075;-76
2021/01/05 02:19:59;;;;;;;30.65;16.45;;;-0.50;99.90;;;;;;5044545;28;20048;-74
2021/01/05 02:22:34;;;;;;;25.83;15.90;;;-0.50;99.90;;;;;;5026328;28;20080;-75
2021/01/05 02:25:17;;;;;;;28.45;15.02;;;-0.50;99.90;;;;;;5026406;28;20417;-74
2021/01/05 02:28:00;;;;;;;26.17;15.35;;;-0.50;99.90;;;;;;5036952;28;20051;-74
2021/01/05 02:30:41;;;;;;;30.83;16.45;;;-0.50;99.90;;;;;;5041504;28;20123;-75
2021/01/05 02:33:34;;;;;;;29.85;16.70;;;-0.50;99.90;;;;;;5043359;28;20121;-74
2021/01/05 02:36:19;;;;;;;28.77;16.05;;;-0.50;99.90;;;;;;5025416;28;20126;-74
2021/01/05 02:39:07;;;;;;;28.33;15.07;;;-0.50;99.90;;;;;;5043935;28;20056;-74
2021/01/05 02:41:36;;;;;;;30.75;17.02;;;-0.50;99.90;;;;;;5026905;28;20437;-74
2021/01/05 02:44:31;;;;;;;27.77;15.77;;;-0.50;99.90;;;;;;5030037;28;20049;-74
2021/01/05 02:47:39;;;;;;;29.75;17.38;;;-0.50;99.90;;;;;;5043768;28;20091;-73
2021/01/05 02:50:47;;;;;;;30.38;16.60;;;-0.50;99.90;;;;;;5044485;28;20095;-73
2021/01/05 02:53:47;;;;;;;27.65;15.18;;;-0.50;99.90;;;;;;5008682;28;20057;-74
2021/01/05 02:56:19;;;;;;;30.88;17.05;;;-0.50;99.90;;;;;;5043834;28;20092;-73
2021/01/05 02:59:36;;;;;;;26.65;16.27;;;-0.50;99.90;;;;;;5043744;28;20045;-74
2021/01/05 03:02:47;;;;;;;28.80;16.27;;;-0.50;99.90;;;;;;4998473;28;20144;-74
2021/01/05 03:05:14;;;;;;;28.20;14.90;;;-0.50;99.90;;;;;;5026336;28;20112;-74
2021/01/05 03:07:40;;;;;;;27.48;15.65;;;-0.50;99.90;;;;;;5043152;28;20601;-74
2021/01/05 03:10:20;;;;;;;30.15;16.95;;;-0.50;99.90;;;;;;5043589;28;20065;-73
2021/01/05 03:13:05;;;;;;;26.80;15.27;;;-0.50;99.90;;;;;;5043948;28;20045;-73
2021/01/05 03:15:43;;;;;;;27.00;15.40;;;-0.50;99.90;;;;;;5044191;28;20136;-74
2021/01/05 03:18:19;;;;;;;29.95;15.52;;;-0.50;99.90;;;;;;5029814;28;20084;-74
2021/01/05 03:20:54;;;;;;;25.40;15.45;;;-0.50;99.90;;;;;;5044722;28;20132;-74
2021/01/05 03:23:22;;;;;;;27.08;16.08;;;-0.50;99.90;;;;;;5025828;28;20198;-75
2021/01/05 03:25:51;;;;;;;28.95;15.45;;;-0.50;99.90;;;;;;5044110;28;20048;-73
2021/01/05 03:28:25;;;;;;;24.73;15.50;;;-0.50;99.90;;;;;;5029839;28;20044;-74
2021/01/05 03:31:06;;;;;;;26.88;15.45;;;-0.50;99.90;;;;;;5026544;28;20087;-73
2021/01/05 03:33:32;;;;;;;24.75;14.88;;;-0.50;99.90;;;;;;5032135;28;20136;-74
2021/01/05 03:35:59;;;;;;;25.63;15.43;;;-0.50;99.90;;;;;;5043703;28;20110;-73
2021/01/05 03:38:26;;;;;;;27.23;15.80;;;-0.50;99.90;;;;;;5043048;28;20809;-74
2021/01/05 03:40:52;;;;;;;24.73;14.95;;;-0.50;99.90;;;;;;5025857;28;20702;-74
2021/01/05 03:43:19;;;;;;;25.70;15.13;;;-0.50;99.90;;;;;;5043451;28;20340;-73
2021/01/05 03:45:45;;;;;;;22.77;14.07;;;-0.50;99.90;;;;;;5030002;28;20080;-73
2021/01/05 03:48:11;;;;;;;24.65;13.40;;;-0.50;99.90;;;;;;5031227;28;20430;-75
2021/01/05 03:50:37;;;;;;;26.80;14.60;;;-0.50;99.90;;;;;;5029535;28;20088;-74
2021/01/05 03:53:04;;;;;;;23.52;14.45;;;-0.50;99.90;;;;;;5047182;28;20088;-75
2021/01/05 03:55:30;;;;;;;28.80;15.27;;;-0.50;99.90;;;;;;5046225;28;20163;-74
2021/01/05 03:57:56;;;;;;;26.73;15.60;;;-0.50;99.90;;;;;;5046685;28;20080;-74
2021/01/05 04:00:28;;;;;;;28.17;17.40;;;-0.50;99.90;;;;;;5047170;28;20052;-75
2021/01/05 04:02:56;;;;;;;26.88;16.38;;;-0.50;99.90;;;;;;5046264;28;20056;-74
2021/01/05 04:05:25;;;;;;;26.17;16.75;;;-0.40;99.90;;;;;;5046874;28;20124;-75
2021/01/05 04:07:51;;;;;;;27.52;15.85;;;-0.50;99.90;;;;;;5046917;28;20045;-74
2021/01/05 04:10:18;;;;;;;31.15;17.95;;;-0.50;99.90;;;;;;5046303;28;20053;-75
2021/01/05 04:12:45;;;;;;;29.02;17.58;;;-0.50;99.90;;;;;;5046136;28;20099;-74
2021/01/05 04:15:17;;;;;;;31.63;18.40;;;-0.50;99.90;;;;;;5046379;28;20114;-74
2021/01/05 04:17:44;;;;;;;37.97;18.92;;;-0.50;99.90;;;;;;5028273;28;20056;-74
2021/01/05 04:20:11;;;;;;;33.63;19.27;;;-0.50;99.90;;;;;;5028790;28;20163;-75
2021/01/05 04:22:38;;;;;;;34.45;19.65;;;-0.50;99.90;;;;;;5044028;28;20084;-74
2021/01/05 04:25:05;;;;;;;36.45;20.10;;;-0.50;99.90;;;;;;5045877;28;20049;-75
2021/01/05 04:27:33;;;;;;;37.60;19.77;;;-0.50;99.90;;;;;;5026792;28;20087;-75
2021/01/05 04:29:59;;;;;;;36.97;19.83;;;-0.50;99.90;;;;;;5047022;28;20080;-75
2021/01/05 04:32:26;;;;;;;32.42;19.13;;;-0.50;99.90;;;;;;5045522;28;20041;-76
2021/01/05 04:34:53;;;;;;;33.97;19.52;;;-0.50;99.90;;;;;;5047037;28;20077;-74
2021/01/05 04:37:19;;;;;;;37.05;21.70;;;-0.50;99.90;;;;;;5046104;28;20555;-76
2021/01/05 04:39:45;;;;;;;41.05;21.58;;;-0.50;99.90;;;;;;5045640;28;20049;-74
2021/01/05 04:42:29;;;;;;;45.08;23.42;;;-0.50;99.90;;;;;;5046630;28;20080;-75
2021/01/05 04:45:02;;;;;;;40.10;21.60;;;-0.50;99.90;;;;;;5046566;28;20523;-74
2021/01/05 04:47:37;;;;;;;45.80;22.10;;;-0.50;99.90;;;;;;5027618;28;20137;-75
2021/01/05 04:50:10;;;;;;;47.33;24.75;;;-0.50;99.90;;;;;;5046796;28;20044;-74
2021/01/05 04:52:53;;;;;;;45.88;23.27;;;-0.50;99.90;;;;;;5046057;28;20128;-75
2021/01/05 04:55:43;;;;;;;47.22;23.58;;;-0.50;99.90;;;;;;5045654;28;20073;-76
2021/01/05 04:58:27;;;;;;;45.92;23.48;;;-0.50;99.90;;;;;;5044901;28;20080;-75
2021/01/05 05:00:55;;;;;;;47.97;25.02;;;-0.50;99.90;;;;;;5046062;28;20060;-75
2021/01/05 05:03:33;;;;;;;52.08;25.80;;;-0.50;99.90;;;;;;5027242;28;20075;-74
2021/01/05 05:06:06;;;;;;;48.65;25.25;;;-0.50;99.90;;;;;;5045867;28;20122;-74
2021/01/05 05:08:47;;;;;;;51.17;26.20;;;-0.40;99.90;;;;;;5044663;28;20149;-76
2021/01/05 05:11:18;;;;;;;50.92;26.65;;;-0.40;99.90;;;;;;5045796;28;20100;-74
2021/01/05 05:13:53;;;;;;;52.70;25.92;;;-0.40;99.90;;;;;;5027417;28;20053;-75
2021/01/05 05:16:47;;;;;;;54.22;27.13;;;-0.40;99.90;;;;;;5027901;28;20110;-76
2021/01/05 05:19:48;;;;;;;54.70;27.23;;;-0.40;99.90;;;;;;5045016;28;20120;-75
2021/01/05 05:22:39;;;;;;;53.90;27.70;;;-0.40;99.90;;;;;;5045362;28;20369;-76
2021/01/05 05:25:32;;;;;;;56.80;28.77;;;-0.40;99.90;;;;;;5015071;28;20084;-74
2021/01/05 05:28:11;;;;;;;59.80;29.23;;;-0.40;99.90;;;;;;5036117;28;20049;-74
2021/01/05 05:30:40;;;;;;;63.55;31.52;;;-0.50;99.90;;;;;;5028126;28;20106;-75
2021/01/05 05:33:16;;;;;;;63.97;31.58;;;-0.50;99.90;;;;;;5044627;28;20124;-74
2021/01/05 05:35:58;;;;;;;63.15;31.17;;;-0.50;99.90;;;;;;5026888;28;20098;-75
2021/01/05 05:38:29;;;;;;;58.10;29.30;;;-0.50;99.90;;;;;;5044641;28;20141;-76
2021/01/05 05:41:13;;;;;;;65.38;31.88;;;-0.50;99.90;;;;;;5026821;28;20335;-76
2021/01/05 05:44:07;;;;;;;67.63;31.92;;;-0.40;99.90;;;;;;5026291;28;20171;-75
2021/01/05 05:46:41;;;;;;;62.47;30.08;;;-0.40;99.90;;;;;;5045252;28;20076;-76
2021/01/05 05:49:17;;;;;;;64.88;31.55;;;-0.30;99.90;;;;;;5044032;28;20111;-75
2021/01/05 05:51:49;;;;;;;61.42;30.67;;;-0.40;99.90;;;;;;5044843;28;20417;-75
2021/01/05 05:54:19;;;;;;;67.15;30.63;;;-0.30;99.90;;;;;;5011948;28;20463;-75
2021/01/05 05:57:19;;;;;;;67.18;31.75;;;-0.30;99.90;;;;;;5045134;28;20056;-76
2021/01/05 05:59:54;;;;;;;60.08;30.65;;;-0.30;99.90;;;;;;5034116;28;20049;-75
2021/01/05 06:02:23;;;;;;;64.90;33.70;;;-0.30;99.90;;;;;;5043593;28;20053;-79
2021/01/05 06:04:52;;;;;;;70.82;34.22;;;-0.40;99.90;;;;;;5044574;28;20049;-75
2021/01/05 06:07:18;;;;;;;64.68;32.55;;;-0.30;99.90;;;;;;5043739;28;20098;-78
2021/01/05 06:09:45;;;;;;;70.40;32.40;;;-0.30;99.90;;;;;;5024454;28;20045;-75
2021/01/05 06:12:11;;;;;;;65.38;32.60;;;-0.30;99.90;;;;;;5044440;28;20411;-76
2021/01/05 06:14:37;;;;;;;72.13;34.50;;;-0.30;99.90;;;;;;5044104;28;20143;-75
2021/01/05 06:17:04;;;;;;;69.93;33.75;;;-0.30;99.90;;;;;;5026439;28;20124;-76
2021/01/05 06:19:30;;;;;;;70.20;34.47;;;-0.30;99.90;;;;;;5043085;28;20068;-77
2021/01/05 06:21:56;;;;;;;74.32;35.65;;;-0.30;99.90;;;;;;5036956;28;20053;-75
2021/01/05 06:24:23;;;;;;;75.35;35.10;;;-0.30;99.90;;;;;;5022255;28;20076;-78
2021/01/05 06:26:49;;;;;;;76.55;35.58;;;-0.30;99.90;;;;;;5011483;28;20147;-77
2021/01/05 06:29:15;;;;;;;70.38;35.47;;;-0.30;99.90;;;;;;5007593;28;20046;-76
2021/01/05 06:31:42;;;;;;;75.03;35.15;;;-0.30;99.90;;;;;;5011547;28;20076;-75
2021/01/05 06:34:08;;;;;;;72.95;35.33;;;-0.30;99.90;;;;;;5011282;28;20068;-74
2021/01/05 06:36:34;;;;;;;73.38;35.03;;;-0.20;99.90;;;;;;5032782;28;20425;-74
2021/01/05 06:39:03;;;;;;;67.97;34.65;;;-0.20;99.90;;;;;;5037283;28;20139;-74
2021/01/05 06:41:30;;;;;;;69.03;34.58;;;-0.30;99.90;;;;;;5025130;28;20126;-74
2021/01/05 06:43:56;;;;;;;69.28;35.35;;;-0.30;99.90;;;;;;5030597;28;20092;-74
2021/01/05 06:46:23;;;;;;;69.10;34.85;;;-0.20;99.90;;;;;;5025671;28;20058;-74
2021/01/05 06:48:49;;;;;;;73.20;34.35;;;-0.20;99.90;;;;;;5010096;28;20068;-74
2021/01/05 06:51:16;;;;;;;72.22;35.58;;;-0.20;99.90;;;;;;5026921;28;20045;-74
2021/01/05 06:53:42;;;;;;;65.90;34.08;;;-0.10;99.90;;;;;;5024925;28;20140;-74
2021/01/05 06:56:13;;;;;;;69.43;33.30;;;-0.20;99.90;;;;;;5026888;28;20056;-75
2021/01/05 06:58:39;;;;;;;69.13;33.85;;;-0.20;99.90;;;;;;5006161;28;20878;-75
2021/01/05 07:01:06;;;;;;;65.55;33.92;;;-0.20;99.90;;;;;;5025028;28;20504;-75
2021/01/05 07:03:32;;;;;;;68.55;33.45;;;-0.20;99.90;;;;;;5024318;28;20045;-75
2021/01/05 07:05:58;;;;;;;70.95;36.13;;;-0.20;99.90;;;;;;5032276;28;20127;-74
2021/01/05 07:08:25;;;;;;;74.18;35.92;;;-0.30;99.90;;;;;;5028140;28;20160;-74
2021/01/05 07:10:53;;;;;;;74.65;36.35;;;-0.30;99.90;;;;;;5031935;28;20107;-75
2021/01/05 07:13:20;;;;;;;72.57;35.72;;;-0.30;99.90;;;;;;5029943;28;20037;-74
2021/01/05 07:15:46;;;;;;;76.68;35.17;;;-0.30;99.90;;;;;;5029349;28;20050;-74
2021/01/05 07:18:13;;;;;;;71.50;35.67;;;-0.30;99.90;;;;;;5027552;28;20138;-74
2021/01/05 07:20:52;;;;;;;73.35;35.10;;;-0.20;99.90;;;;;;5028423;28;20044;-73
2021/01/05 07:23:18;;;;;;;69.65;34.95;;;-0.20;99.90;;;;;;5030850;28;20053;-74
2021/01/05 07:25:46;;;;;;;78.30;36.38;;;-0.20;99.90;;;;;;5029000;28;20058;-74
2021/01/05 07:28:15;;;;;;;74.18;34.70;;;-0.20;99.90;;;;;;5031042;28;20042;-73
2021/01/05 07:30:41;;;;;;;68.88;34.75;;;-0.20;99.90;;;;;;5031514;28;20169;-74
2021/01/05 07:33:09;;;;;;;77.38;36.67;;;-0.20;99.90;;;;;;5011717;28;20453;-74
2021/01/05 07:35:36;;;;;;;76.03;37.15;;;-0.20;99.90;;;;;;5040348;28;20571;-73
2021/01/05 07:38:03;;;;;;;73.45;35.60;;;-0.20;99.90;;;;;;5037767;28;20058;-73
2021/01/05 07:40:33;;;;;;;71.65;35.38;;;-0.20;99.90;;;;;;5028285;28;20056;-74
2021/01/05 07:43:02;;;;;;;76.63;36.78;;;-0.20;99.90;;;;;;5017653;28;20103;-73
2021/01/05 07:45:30;;;;;;;76.60;37.50;;;-0.10;99.90;;;;;;5040986;28;20159;-74
2021/01/05 07:48:01;;;;;;;79.90;37.50;;;-0.20;99.90;;;;;;5039861;28;20072;-73
2021/01/05 07:50:30;;;;;;;82.10;37.60;;;-0.20;99.90;;;;;;5022923;28;20723;-73
2021/01/05 07:53:02;;;;;;;83.35;37.97;;;-0.10;99.90;;;;;;5036519;28;20081;-73
2021/01/05 07:55:42;;;;;;;83.53;38.45;;;-0.10;99.90;;;;;;5025102;28;20049;-74
2021/01/05 07:58:08;;;;;;;81.80;39.58;;;-0.10;99.90;;;;;;5029527;28;20041;-75
2021/01/05 08:00:34;;;;;;;83.55;37.38;;;-0.10;99.90;;;;;;5038480;28;20087;-74
2021/01/05 08:03:01;;;;;;;83.88;36.42;;;-0.10;99.90;;;;;;5021694;28;20133;-73
2021/01/05 08:05:28;;;;;;;80.35;37.58;;;0.00;99.90;;;;;;5021424;28;20037;-72
2021/01/05 08:07:56;;;;;;;74.55;36.13;;;0.00;99.90;;;;;;5022409;28;20448;-73
2021/01/05 08:10:31;;;;;;;79.25;37.40;;;0.00;99.90;;;;;;5037679;28;20135;-74
2021/01/05 08:12:58;;;;;;;81.85;36.70;;;0.10;99.90;;;;;;5039392;28;20518;-74
2021/01/05 08:15:26;;;;;;;75.63;36.58;;;0.10;99.90;;;;;;5039652;28;20824;-74
2021/01/05 08:17:53;;;;;;;80.60;36.20;;;0.10;99.90;;;;;;5018482;28;20096;-74
2021/01/05 08:20:21;;;;;;;84.43;38.72;;;0.10;99.90;;;;;;5038843;28;20049;-74
2021/01/05 08:22:50;;;;;;;81.35;37.88;;;0.10;99.90;;;;;;5035489;28;20106;-74
2021/01/05 08:25:19;;;;;;;87.32;37.70;;;0.10;99.90;;;;;;5034863;28;20075;-74
2021/01/05 08:27:50;;;;;;;87.38;37.80;;;0.20;99.90;;;;;;5036413;28;20117;-74
2021/01/05 08:30:23;;;;;;;83.85;39.00;;;0.10;99.90;;;;;;5038531;28;20049;-73
2021/01/05 08:32:52;;;;;;;95.80;39.38;;;0.20;99.90;;;;;;5039462;28;20565;-73
2021/01/05 08:35:23;;;;;;;84.78;38.78;;;0.10;99.90;;;;;;5040670;28;20075;-73
2021/01/05 08:37:50;;;;;;;84.72;38.47;;;0.10;99.90;;;;;;5019190;28;20166;-73
2021/01/05 08:40:25;;;;;;;88.88;40.10;;;0.20;99.90;;;;;;5015170;28;20143;-73
2021/01/05 08:42:51;;;;;;;85.05;38.90;;;0.10;99.90;;;;;;5019434;28;20049;-74
2021/01/05 08:45:18;;;;;;;87.82;40.42;;;0.20;99.90;;;;;;5017532;28;20125;-73
2021/01/05 08:47:46;;;;;;;93.45;41.65;;;0.20;99.90;;;;;;5015762;28;20081;-73
2021/01/05 08:50:28;;;;;;;80.78;38.15;;;0.20;99.90;;;;;;5025389;28;20072;-74
2021/01/05 08:52:59;;;;;;;87.75;40.70;;;0.20;99.90;;;;;;5035873;28;20539;-74
2021/01/05 08:55:26;;;;;;;82.40;37.80;;;0.20;99.90;;;;;;5044251;28;20045;-74
2021/01/05 08:58:19;;;;;;;80.25;37.60;;;0.20;99.90;;;;;;5017121;28;20053;-74
2021/01/05 09:01:00;;;;;;;91.38;40.92;;;0.20;99.90;;;;;;5015356;28;20049;-73
2021/01/05 09:03:34;;;;;;;83.00;37.15;;;0.20;99.90;;;;;;5035718;28;20140;-73
2021/01/05 09:06:26;;;;;;;75.50;35.00;;;0.20;99.90;;;;;;5005788;28;20049;-74
2021/01/05 09:09:36;;;;;;;78.85;35.42;;;0.20;99.90;;;;;;5025607;28;20057;-74
2021/01/05 09:12:06;;;;;;;71.13;35.35;;;0.20;99.90;;;;;;5012833;28;20073;-74
2021/01/05 09:14:53;;;;;;;74.05;35.22;;;0.20;99.90;;;;;;5038928;28;20078;-74
2021/01/05 09:17:51;;;;;;;76.25;35.45;;;0.30;99.90;;;;;;5034205;28;20057;-73
2021/01/05 09:20:47;;;;;;;69.65;34.47;;;0.30;99.90;;;;;;5040587;28;20049;-72
2021/01/05 09:23:22;;;;;;;64.72;32.25;;;0.30;99.90;;;;;;5031693;28;20121;-74
2021/01/05 09:25:56;;;;;;;72.45;32.83;;;0.40;99.90;;;;;;5023772;28;20384;-74
2021/01/05 09:28:32;;;;;;;63.25;32.42;;;0.40;99.90;;;;;;5020492;28;20048;-74
2021/01/05 09:31:24;;;;;;;64.85;31.67;;;0.40;99.90;;;;;;5020757;28;20823;-73
2021/01/05 09:34:01;;;;;;;64.82;33.40;;;0.40;99.90;;;;;;5033372;28;20060;-73
2021/01/05 09:36:36;;;;;;;57.88;30.25;;;0.40;99.90;;;;;;5028992;28;20560;-73
2021/01/05 09:39:36;;;;;;;63.72;32.22;;;0.40;99.90;;;;;;5042107;28;20045;-74
2021/01/05 09:42:06;;;;;;;62.00;30.98;;;0.40;99.90;;;;;;5005767;28;20056;-74
2021/01/05 09:44:38;;;;;;;;;;;0.40;99.90;;;;;;5038620;28;20608;-74
2021/01/05 09:47:16;;;;;;;60.58;29.83;;;0.50;99.90;;;;;;5033484;28;19972;-74
2021/01/05 09:52:43;;;;;;;61.30;31.95;;;0.40;99.90;;;;;;5037405;28;20154;-74
2021/01/05 09:55:23;;;;;;;59.88;31.90;;;0.40;99.90;;;;;;5021728;28;20077;-74
2021/01/05 09:57:52;;;;;;;66.10;32.38;;;0.40;99.90;;;;;;5036170;28;20121;-74
2021/01/05 10:00:39;;;;;;;56.28;30.95;;;0.40;99.90;;;;;;5018702;28;20045;-74
2021/01/05 10:03:10;;;;;;;63.35;33.97;;;0.50;99.90;;;;;;5035021;28;20127;-75
2021/01/05 10:05:56;;;;;;;60.42;32.30;;;0.40;99.90;;;;;;5038355;28;20044;-74
2021/01/05 10:09:12;;;;;;;59.63;29.90;;;0.40;99.90;;;;;;5036050;28;20142;-74
2021/01/05 10:11:49;;;;;;;55.65;29.95;;;0.40;99.90;;;;;;5031699;28;20119;-74
2021/01/05 10:17:21;;;;;;;58.25;30.67;;;0.50;99.90;;;;;;5001398;28;20095;-74
2021/01/05 10:19:56;;;;;;;55.70;30.10;;;0.50;99.90;;;;;;5033584;28;20053;-74
2021/01/05 10:22:42;;;;;;;65.35;31.38;;;0.50;99.90;;;;;;5031957;28;20051;-74
2021/01/05 10:25:19;;;;;;;59.90;31.35;;;0.50;99.90;;;;;;5031901;28;20440;-74
2021/01/05 10:27:48;;;;;;;56.55;29.58;;;0.50;99.90;;;;;;5034839;28;20075;-74
2021/01/05 10:30:22;;;;;;;61.22;31.92;;;0.50;99.90;;;;;;5036788;28;20052;-74
2021/01/05 10:33:04;;;;;;;61.78;31.73;;;0.40;99.90;;;;;;5031441;28;20106;-74
2021/01/05 10:35:53;;;;;;;61.55;30.65;;;0.50;99.90;;;;;;5032984;28;20041;-74
2021/01/05 10:38:33;;;;;;;68.30;33.97;;;0.50;99.90;;;;;;5025577;28;20068;-75
2021/01/05 10:41:17;;;;;;;63.72;32.85;;;0.50;99.90;;;;;;5025278;28;20049;-74
2021/01/05 10:43:54;;;;;;;60.90;33.38;;;0.50;99.90;;;;;;5020253;28;20056;-75
2021/01/05 10:46:27;;;;;;;61.42;31.73;;;0.60;99.90;;;;;;5008826;28;20525;-73
2021/01/05 10:48:56;;;;;;;57.35;30.17;;;0.50;99.90;;;;;;5027231;28;20137;-75
2021/01/05 10:51:24;;;;;;;61.70;32.08;;;0.60;99.90;;;;;;5029275;28;20042;-75
2021/01/05 10:53:54;;;;;;;58.13;31.17;;;0.60;99.90;;;;;;5028241;28;20059;-75
2021/01/05 10:56:23;;;;;;;56.63;30.50;;;0.60;99.90;;;;;;5024451;28;20558;-76
2021/01/05 10:58:50;;;;;;;55.10;30.10;;;0.60;99.90;;;;;;5011011;28;20095;-73
2021/01/05 11:01:19;;;;;;;64.90;33.45;;;0.60;99.90;;;;;;5021290;28;20152;-73
2021/01/05 11:03:59;;;;;;;54.67;30.60;;;0.60;99.90;;;;;;5033192;28;20046;-73
2021/01/05 11:06:35;;;;;;;55.03;29.90;;;0.60;99.90;;;;;;5031230;28;20799;-73
2021/01/05 11:09:06;;;;;;;57.00;29.48;;;0.70;99.90;;;;;;5023453;28;20505;-74
2021/01/05 11:11:32;;;;;;;52.05;28.42;;;0.80;99.90;;;;;;5023873;28;20076;-74
2021/01/05 11:14:03;;;;;;;57.22;29.08;;;0.80;99.90;;;;;;5031730;28;20052;-73
2021/01/05 11:16:35;;;;;;;47.15;26.55;;;0.90;99.90;;;;;;5029999;28;20049;-73
2021/01/05 11:19:02;;;;;;;51.72;28.00;;;0.90;99.90;;;;;;5013694;28;20330;-73
2021/01/05 11:21:51;;;;;;;51.13;28.90;;;1.00;99.90;;;;;;5034907;28;20565;-74
2021/01/05 11:24:27;;;;;;;41.08;22.10;;;1.00;99.90;;;;;;5023959;28;20703;-75
2021/01/05 11:26:59;;;;;;;55.53;28.33;;;1.00;99.90;;;;;;5012930;28;20056;-73
2021/01/05 11:29:28;;;;;;;48.78;27.55;;;1.00;99.90;;;;;;5035264;28;20055;-74
2021/01/05 11:31:58;;;;;;;57.00;29.88;;;1.00;99.90;;;;;;5030232;28;20068;-74
2021/01/05 11:34:26;;;;;;;49.80;28.45;;;1.00;99.90;;;;;;5031652;28;20041;-74
2021/01/05 11:36:54;;;;;;;53.05;28.02;;;0.90;99.90;;;;;;5024990;28;20045;-74
2021/01/05 11:39:23;;;;;;;53.40;29.17;;;0.90;99.90;;;;;;5025537;28;20072;-74
2021/01/05 11:41:51;;;;;;;51.30;28.63;;;0.90;99.90;;;;;;5033829;28;20044;-74
2021/01/05 11:44:19;;;;;;;50.40;28.25;;;1.00;99.90;;;;;;5011875;28;20193;-74
2021/01/05 11:46:49;;;;;;;49.42;27.05;;;1.10;99.90;;;;;;5016365;28;20099;-74
2021/01/05 11:49:15;;;;;;;47.95;27.50;;;1.10;99.90;;;;;;5016058;28;20052;-74
2021/01/05 11:51:42;;;;;;;50.90;28.33;;;1.20;99.90;;;;;;5026934;28;20124;-74
2021/01/05 11:54:08;;;;;;;45.30;26.95;;;1.20;99.90;;;;;;5029035;28;20085;-75
2021/01/05 11:56:35;;;;;;;52.88;27.92;;;1.20;99.90;;;;;;5035635;28;20072;-74
2021/01/05 11:59:03;;;;;;;47.80;27.15;;;1.20;99.90;;;;;;5023206;28;20592;-73
2021/01/05 12:01:35;;;;;;;45.88;25.55;;;1.20;99.90;;;;;;5024852;28;20092;-74
2021/01/05 12:04:06;;;;;;;45.53;26.65;;;1.20;99.90;;;;;;5044591;28;20452;-74
2021/01/05 12:06:33;;;;;;;38.28;21.08;;;1.20;99.90;;;;;;5025551;28;20106;-74
2021/01/05 12:08:59;;;;;;;46.92;26.30;;;1.20;99.90;;;;;;5037974;28;20107;-74
2021/01/05 12:11:29;;;;;;;51.90;27.45;;;1.20;99.90;;;;;;5043728;28;20048;-75
2021/01/05 12:13:55;;;;;;;51.80;27.70;;;1.20;99.90;;;;;;5039631;28;20069;-73
2021/01/05 12:16:42;;;;;;;49.58;28.10;;;1.10;99.90;;;;;;5044713;28;20762;-74
2021/01/05 12:19:13;;;;;;;49.65;26.58;;;1.10;99.90;;;;;;5044693;28;20380;-74
2021/01/05 12:21:41;;;;;;;50.00;27.08;;;1.10;99.90;;;;;;5026102;28;20057;-73
2021/01/05 12:24:14;;;;;;;47.50;26.98;;;1.10;99.90;;;;;;5016417;28;20049;-73
2021/01/05 12:26:40;;;;;;;;;;;1.10;99.90;;;;;;5026228;28;21043;-74
2021/01/05 12:29:14;;;;;;;53.42;26.50;;;1.00;99.90;;;;;;5014268;28;19948;-74
2021/01/05 12:32:02;;;;;;;50.90;27.60;;;1.10;99.90;;;;;;5025587;28;20107;-74
2021/01/05 12:34:31;;;;;;;49.80;27.70;;;1.00;99.90;;;;;;5039795;28;21340;-75
2021/01/05 12:37:04;;;;;;;49.05;27.67;;;1.10;99.90;;;;;;5041422;28;20549;-73
2021/01/05 12:39:32;;;;;;;48.40;27.33;;;1.10;99.90;;;;;;5038376;28;20041;-74
2021/01/05 12:42:13;;;;;;;48.17;28.02;;;1.10;99.90;;;;;;5042717;28;20103;-74
2021/01/05 12:44:39;;;;;;;52.13;28.15;;;1.00;99.90;;;;;;5016816;28;20041;-74
2021/01/05 12:47:06;;;;;;;46.13;27.35;;;1.00;99.90;;;;;;5033129;28;20434;-74
2021/01/05 12:49:33;;;;;;;48.80;26.98;;;1.00;99.90;;;;;;5038572;28;20045;-74
2021/01/05 12:52:10;;;;;;;52.00;28.38;;;1.00;99.90;;;;;;5044141;28;20118;-73
2021/01/05 12:54:37;;;;;;;52.58;28.45;;;1.00;99.90;;;;;;5017136;28;20057;-74
2021/01/05 12:57:06;;;;;;;55.13;28.33;;;0.90;99.90;;;;;;5015840;28;20140;-74
2021/01/05 12:59:38;;;;;;;57.22;30.05;;;0.80;99.90;;;;;;5044641;28;20122;-74
2021/01/05 13:02:18;;;;;;;61.40;30.05;;;0.80;99.90;;;;;;5033277;28;20069;-74
2021/01/05 13:04:45;;;;;;;61.72;30.25;;;0.70;99.90;;;;;;5041448;28;20049;-74
2021/01/05 13:07:15;;;;;;;58.55;30.90;;;0.70;99.90;;;;;;5027991;28;20037;-74